Kohju — H3XI — position and weather

sailwx.info

Track history (hours):
 
Tides and Currents Weather Stations Pressure Air Temp Water Temp Dewpoint Dewpoint Depression Visibility Wind Speed Wind Dir Waves Ship Positions

Kohju

Last reported at 2014-Sep-01 07:32 UTC. Time now 2014-Sep-01 07:44 UTC.
Position N 40°44' E 028°59'.

Length 289 m; draft 17 m.

Type: Cargo ship. MMSI: 357349000.

Date/timePositionNaut miles runAvg speedWind from/ knotsBaromVisibWave heightAir tempDewpointWater temp
2014-Sep-01 07:32N 40°44' E 028°59'1 1.0
2014-Sep-01 06:33N 40°45' E 028°58'1 1.2
2014-Sep-01 05:32N 40°46' E 028°58'1 1.2
2014-Sep-01 04:33N 40°47' E 028°57'1 1.2
2014-Sep-01 03:33N 40°48' E 028°56'1 1.1
2014-Sep-01 02:33N 40°49' E 028°56'1 1.2
2014-Sep-01 01:30N 40°50' E 028°55'1 1.0
2014-Sep-01 00:32N 40°51' E 028°55'7 7.0
2014-Aug-31 23:29N 40°51' E 028°45'  
2014-Aug-28 23:34N 36°14' E 015°27'1211.8
2014-Aug-28 22:31N 36°15' E 015°12'1212.1
2014-Aug-28 21:32N 36°19' E 014°58'1212.4
2014-Aug-28 20:33N 36°22' E 014°44'1212.3
2014-Aug-28 19:33N 36°25' E 014°29'1212.2
2014-Aug-28 18:33N 36°29' E 014°14'1212.1
2014-Aug-28 17:33N 36°32' E 013°60'1212.1
2014-Aug-28 16:33N 36°35' E 013°45'1212.2
2014-Aug-28 15:33N 36°39' E 013°31'1212.4
2014-Aug-28 14:34N 36°42' E 013°16'1212.3
2014-Aug-28 13:33N 36°45' E 013°01'1211.9
2014-Aug-28 12:33N 36°49' E 012°47'1211.6
2014-Aug-28 11:33N 36°52' E 012°33'1211.6
2014-Aug-28 10:31N 36°55' E 012°18'2311.9
2014-Aug-28 08:33N 37°03' E 011°51'2412.1
2014-Aug-28 06:33N 37°15' E 011°25'2512.0
2014-Aug-28 04:30N 37°27' E 010°58'1212.2
2014-Aug-28 03:33N 37°30' E 010°43'1212.2
2014-Aug-28 02:33N 37°33' E 010°28'1312.5
2014-Aug-28 01:33N 37°35' E 010°13'1312.6
2014-Aug-28 00:33N 37°35' E 009°57'1312.6
2014-Aug-27 23:33N 37°35' E 009°41'1712.6
2014-Aug-27 22:12N 37°36' E 009°20'812.5
2014-Aug-27 21:33N 37°36' E 009°09'1212.3
2014-Aug-27 20:33N 37°37' E 008°54'1212.4
2014-Aug-27 19:33N 37°36' E 008°38'1212.3
2014-Aug-27 18:33N 37°34' E 008°23'1212.4
2014-Aug-27 17:33N 37°33' E 008°07'1212.4
2014-Aug-27 16:33N 37°32' E 007°52'1212.2
2014-Aug-27 15:33N 37°30' E 007°37'1212.4
2014-Aug-27 14:33N 37°29' E 007°21'1212.4
2014-Aug-27 13:33N 37°27' E 007°06'1512.1
2014-Aug-27 12:18N 37°26' E 006°47'912.4
2014-Aug-27 11:33N 37°24' E 006°35'4811.9
2014-Aug-27 07:34N 37°19' E 005°36'1713.1
2014-Aug-27 06:14N 37°18' E 005°14'2212.3
2014-Aug-27 04:29N 37°17' E 004°47'2412.6
2014-Aug-27 02:33N 37°13' E 004°17'1312.6
2014-Aug-27 01:33N 37°11' E 004°01'1212.5
2014-Aug-27 00:33N 37°09' E 003°46'1412.3
2014-Aug-26 23:25N 37°06' E 003°29'1112.6
2014-Aug-26 22:33N 37°05' E 003°15'1212.5
2014-Aug-26 21:33N 37°03' E 002°60'1312.7
2014-Aug-26 20:33N 37°01' E 002°44'1313.1
2014-Aug-26 19:33N 36°59' E 002°28'1312.6
2014-Aug-26 18:33N 36°57' E 002°12'1312.5
2014-Aug-26 17:31N 36°55' E 001°56'1212.6
2014-Aug-26 16:34N 36°53' E 001°41'1212.0
2014-Aug-26 15:33N 36°51' E 001°26'1212.2
2014-Aug-26 14:33N 36°49' E 001°11'1212.1
2014-Aug-26 13:33N 36°47' E 000°56'1312.5
2014-Aug-26 12:33N 36°43' E 000°41'1312.9
2014-Aug-26 11:33N 36°40' E 000°26'1312.7
2014-Aug-26 10:33N 36°37' E 000°10'3911.9
2014-Aug-26 07:15N 36°28' W 000°37'1312.1
2014-Aug-26 06:09N 36°24' W 000°53'27612.2
2014-Aug-25 07:33N 35°49' W 006°32'  
Track history (hours):
 
Tides and Currents Weather Stations Pressure Air Temp Water Temp Dewpoint Dewpoint Depression Visibility Wind Speed Wind Dir Waves Ship Positions

Kohju

Last reported at 2014-Sep-01 07:32 UTC. Time now 2014-Sep-01 07:44 UTC.
Position N 40°44' E 028°59'.

Length 289 m; draft 17 m.

Type: Cargo ship. MMSI: 357349000.

Date/timePositionNaut miles runAvg speedWind from/ knotsBaromVisibWave heightAir tempDewpointWater temp
2014-Sep-01 07:32N 40°44' E 028°59'1 1.0
2014-Sep-01 06:33N 40°45' E 028°58'1 1.2
2014-Sep-01 05:32N 40°46' E 028°58'1 1.2
2014-Sep-01 04:33N 40°47' E 028°57'1 1.2
2014-Sep-01 03:33N 40°48' E 028°56'1 1.1
2014-Sep-01 02:33N 40°49' E 028°56'1 1.2
2014-Sep-01 01:30N 40°50' E 028°55'1 1.0
2014-Sep-01 00:32N 40°51' E 028°55'7 7.0
2014-Aug-31 23:29N 40°51' E 028°45'  
2014-Aug-28 23:34N 36°14' E 015°27'1211.8
2014-Aug-28 22:31N 36°15' E 015°12'1212.1
2014-Aug-28 21:32N 36°19' E 014°58'1212.4
2014-Aug-28 20:33N 36°22' E 014°44'1212.3
2014-Aug-28 19:33N 36°25' E 014°29'1212.2
2014-Aug-28 18:33N 36°29' E 014°14'1212.1
2014-Aug-28 17:33N 36°32' E 013°60'1212.1
2014-Aug-28 16:33N 36°35' E 013°45'1212.2
2014-Aug-28 15:33N 36°39' E 013°31'1212.4
2014-Aug-28 14:34N 36°42' E 013°16'1212.3
2014-Aug-28 13:33N 36°45' E 013°01'1211.9
2014-Aug-28 12:33N 36°49' E 012°47'1211.6
2014-Aug-28 11:33N 36°52' E 012°33'1211.6
2014-Aug-28 10:31N 36°55' E 012°18'2311.9
2014-Aug-28 08:33N 37°03' E 011°51'2412.1
2014-Aug-28 06:33N 37°15' E 011°25'2512.0
2014-Aug-28 04:30N 37°27' E 010°58'1212.2
2014-Aug-28 03:33N 37°30' E 010°43'1212.2
2014-Aug-28 02:33N 37°33' E 010°28'1312.5
2014-Aug-28 01:33N 37°35' E 010°13'1312.6
2014-Aug-28 00:33N 37°35' E 009°57'1312.6
2014-Aug-27 23:33N 37°35' E 009°41'1712.6
2014-Aug-27 22:12N 37°36' E 009°20'812.5
2014-Aug-27 21:33N 37°36' E 009°09'1212.3
2014-Aug-27 20:33N 37°37' E 008°54'1212.4
2014-Aug-27 19:33N 37°36' E 008°38'1212.3
2014-Aug-27 18:33N 37°34' E 008°23'1212.4
2014-Aug-27 17:33N 37°33' E 008°07'1212.4
2014-Aug-27 16:33N 37°32' E 007°52'1212.2
2014-Aug-27 15:33N 37°30' E 007°37'1212.4
2014-Aug-27 14:33N 37°29' E 007°21'1212.4
2014-Aug-27 13:33N 37°27' E 007°06'1512.1
2014-Aug-27 12:18N 37°26' E 006°47'912.4
2014-Aug-27 11:33N 37°24' E 006°35'4811.9
2014-Aug-27 07:34N 37°19' E 005°36'1713.1
2014-Aug-27 06:14N 37°18' E 005°14'2212.3
2014-Aug-27 04:29N 37°17' E 004°47'2412.6
2014-Aug-27 02:33N 37°13' E 004°17'1312.6
2014-Aug-27 01:33N 37°11' E 004°01'1212.5
2014-Aug-27 00:33N 37°09' E 003°46'1412.3
2014-Aug-26 23:25N 37°06' E 003°29'1112.6
2014-Aug-26 22:33N 37°05' E 003°15'1212.5
2014-Aug-26 21:33N 37°03' E 002°60'1312.7
2014-Aug-26 20:33N 37°01' E 002°44'1313.1
2014-Aug-26 19:33N 36°59' E 002°28'1312.6
2014-Aug-26 18:33N 36°57' E 002°12'1312.5
2014-Aug-26 17:31N 36°55' E 001°56'1212.6
2014-Aug-26 16:34N 36°53' E 001°41'1212.0
2014-Aug-26 15:33N 36°51' E 001°26'1212.2
2014-Aug-26 14:33N 36°49' E 001°11'1212.1
2014-Aug-26 13:33N 36°47' E 000°56'1312.5
2014-Aug-26 12:33N 36°43' E 000°41'1312.9
2014-Aug-26 11:33N 36°40' E 000°26'1312.7
2014-Aug-26 10:33N 36°37' E 000°10'3911.9
2014-Aug-26 07:15N 36°28' W 000°37'1312.1
2014-Aug-26 06:09N 36°24' W 000°53'27612.2
2014-Aug-25 07:33N 35°49' W 006°32'  

Dump ship's entire track history